createdAt,value
2022-07-29T00:00:35.017Z,1.55
2022-07-29T00:03:02.530Z,1.90
2022-07-29T00:05:30.264Z,2.17
2022-07-29T00:07:57.770Z,2.25
2022-07-29T00:10:25.424Z,2.10
2022-07-29T00:12:52.871Z,2.10
2022-07-29T00:15:20.922Z,1.60
2022-07-29T00:17:49.740Z,1.73
2022-07-29T00:20:17.231Z,1.60
2022-07-29T00:22:44.729Z,1.60
2022-07-29T00:25:13.857Z,1.80
2022-07-29T00:27:41.560Z,1.70
2022-07-29T00:30:09.892Z,1.85
2022-07-29T00:32:37.399Z,1.48
2022-07-29T00:35:25.130Z,1.70
2022-07-29T00:37:53.063Z,1.60
2022-07-29T00:40:23.439Z,1.70
2022-07-29T00:42:52.330Z,1.50
2022-07-29T00:45:21.108Z,1.65
2022-07-29T00:47:48.704Z,1.73
2022-07-29T00:50:17.787Z,1.77
2022-07-29T00:52:45.566Z,1.60
2022-07-29T00:55:15.802Z,1.80
2022-07-29T00:57:44.248Z,2.00
2022-07-29T01:00:14.288Z,1.73
2022-07-29T01:02:41.781Z,1.95
2022-07-29T01:05:09.777Z,1.40
2022-07-29T01:07:39.373Z,2.00
2022-07-29T01:10:09.824Z,2.45
2022-07-29T01:12:39.251Z,1.57
2022-07-29T01:15:09.456Z,1.80
2022-07-29T01:17:53.153Z,1.60
2022-07-29T01:20:31.729Z,1.63
2022-07-29T01:23:37.321Z,1.70
2022-07-29T01:26:43.432Z,1.60
2022-07-29T01:29:18.763Z,2.30
2022-07-29T01:31:59.578Z,1.63
2022-07-29T01:34:34.420Z,1.50
2022-07-29T01:37:10.171Z,1.52
2022-07-29T01:39:40.367Z,1.70
2022-07-29T01:42:14.577Z,1.85
2022-07-29T01:44:50.276Z,1.77
2022-07-29T01:47:22.614Z,1.88
2022-07-29T01:49:54.729Z,1.80
2022-07-29T01:52:25.782Z,1.80
2022-07-29T01:54:56.984Z,1.52
2022-07-29T01:57:29.513Z,1.90
2022-07-29T02:00:00.330Z,1.73
2022-07-29T02:02:29.824Z,1.65
2022-07-29T02:04:59.549Z,1.60
2022-07-29T02:07:30.164Z,1.58
2022-07-29T02:10:00.035Z,1.70
2022-07-29T02:12:29.710Z,1.83
2022-07-29T02:15:01.427Z,1.77
2022-07-29T02:17:42.809Z,1.70
2022-07-29T02:20:11.841Z,2.58
2022-07-29T02:22:40.844Z,1.80
2022-07-29T02:25:13.774Z,1.67
2022-07-29T02:27:42.674Z,1.70
2022-07-29T02:30:13.222Z,1.70
2022-07-29T02:32:43.494Z,1.77
2022-07-29T02:35:12.412Z,1.80
2022-07-29T02:37:41.480Z,1.75
2022-07-29T02:40:13.176Z,1.50
2022-07-29T02:42:44.087Z,1.70
2022-07-29T02:45:13.234Z,1.60
2022-07-29T02:47:44.621Z,1.83
2022-07-29T02:50:16.069Z,1.60
2022-07-29T02:52:46.197Z,1.95
2022-07-29T02:55:20.005Z,1.80
2022-07-29T02:57:54.887Z,1.85
2022-07-29T03:00:28.638Z,1.85
2022-07-29T03:02:59.924Z,1.67
2022-07-29T03:05:27.937Z,1.92
2022-07-29T03:07:59.036Z,2.10
2022-07-29T03:10:28.172Z,1.70
2022-07-29T03:12:57.162Z,1.55
2022-07-29T03:15:26.724Z,1.90
2022-07-29T03:17:54.862Z,2.10
2022-07-29T03:20:22.708Z,1.93
2022-07-29T03:22:50.458Z,2.05
2022-07-29T03:25:21.253Z,3.50
2022-07-29T03:27:49.457Z,2.28
2022-07-29T03:30:18.186Z,2.05
2022-07-29T03:32:52.614Z,2.20
2022-07-29T03:35:21.254Z,2.38
2022-07-29T03:37:48.865Z,2.20
2022-07-29T03:40:21.933Z,2.00
2022-07-29T03:42:54.133Z,1.92
2022-07-29T03:45:22.609Z,1.93
2022-07-29T03:48:00.926Z,2.17
2022-07-29T03:50:30.576Z,2.25
2022-07-29T03:52:58.529Z,2.00
2022-07-29T03:55:26.940Z,2.30
2022-07-29T03:57:54.840Z,2.00
2022-07-29T04:00:23.553Z,1.85
2022-07-29T04:02:52.451Z,2.17
2022-07-29T04:05:20.671Z,2.50
2022-07-29T04:07:49.605Z,2.08
2022-07-29T04:10:29.370Z,1.80
2022-07-29T04:12:58.950Z,2.13
2022-07-29T04:15:26.730Z,2.17
2022-07-29T04:18:00.798Z,1.85
2022-07-29T04:20:28.364Z,1.85
2022-07-29T04:22:56.092Z,1.93
2022-07-29T04:25:23.933Z,2.10
2022-07-29T04:28:03.933Z,2.50
2022-07-29T04:30:32.598Z,2.30
2022-07-29T04:33:01.675Z,2.78
2022-07-29T04:35:29.157Z,2.40
2022-07-29T04:37:56.730Z,2.38
2022-07-29T04:40:24.263Z,2.10
2022-07-29T04:42:51.741Z,2.30
2022-07-29T04:45:22.672Z,2.10
2022-07-29T04:47:50.335Z,2.43
2022-07-29T04:50:19.319Z,2.22
2022-07-29T04:52:47.020Z,1.70
2022-07-29T04:55:14.477Z,1.80
2022-07-29T04:57:41.943Z,1.50
2022-07-29T05:00:10.924Z,2.40
2022-07-29T05:02:38.456Z,2.20
2022-07-29T05:05:06.538Z,3.28
2022-07-29T05:07:35.457Z,2.13
2022-07-29T05:10:02.924Z,2.40
2022-07-29T05:12:30.448Z,2.53
2022-07-29T05:14:57.898Z,2.25
2022-07-29T05:17:25.369Z,2.42
2022-07-29T05:19:52.967Z,2.22
2022-07-29T05:22:20.603Z,2.30
2022-07-29T05:24:49.525Z,2.50
2022-07-29T05:27:17.116Z,2.40
2022-07-29T05:29:45.934Z,3.33
2022-07-29T05:32:14.151Z,2.20
2022-07-29T05:34:51.394Z,2.00
2022-07-29T05:37:19.397Z,2.60
2022-07-29T05:39:50.580Z,2.13
2022-07-29T05:42:26.162Z,2.70
2022-07-29T05:44:53.800Z,2.95
2022-07-29T05:47:21.393Z,2.80
2022-07-29T05:49:49.195Z,3.17
2022-07-29T05:52:16.694Z,2.90
2022-07-29T05:54:44.620Z,2.70
2022-07-29T05:57:17.632Z,2.70
2022-07-29T05:59:46.444Z,2.45
2022-07-29T06:02:14.034Z,2.47
2022-07-29T06:04:41.580Z,2.53
2022-07-29T06:07:09.108Z,2.65
2022-07-29T06:09:36.824Z,2.72
2022-07-29T06:12:04.873Z,3.25
2022-07-29T06:14:33.483Z,2.40
2022-07-29T06:17:02.482Z,2.60
2022-07-29T06:19:30.053Z,2.60
2022-07-29T06:21:57.491Z,3.13
2022-07-29T06:24:24.962Z,3.15
2022-07-29T06:26:52.390Z,2.57
2022-07-29T06:29:19.893Z,3.00
2022-07-29T06:31:47.355Z,3.28
2022-07-29T06:34:16.676Z,3.20
2022-07-29T06:36:45.288Z,3.00
2022-07-29T06:39:13.933Z,3.07
2022-07-29T06:41:41.553Z,3.20
2022-07-29T06:44:09.028Z,3.45
2022-07-29T06:46:37.319Z,3.42
2022-07-29T06:49:05.741Z,3.50
2022-07-29T06:51:34.799Z,3.20
2022-07-29T06:54:12.871Z,3.75
2022-07-29T06:56:42.529Z,3.13
2022-07-29T06:59:11.570Z,3.92
2022-07-29T07:01:40.742Z,4.22
2022-07-29T07:04:09.495Z,3.73
2022-07-29T07:06:38.658Z,4.32
2022-07-29T07:09:06.751Z,4.13
2022-07-29T07:11:34.752Z,4.00
2022-07-29T07:14:03.729Z,3.38
2022-07-29T07:16:42.042Z,3.70
2022-07-29T07:19:09.570Z,3.60
2022-07-29T07:21:38.419Z,3.47
2022-07-29T07:24:06.919Z,3.92
2022-07-29T07:26:34.379Z,3.47
2022-07-29T07:29:02.294Z,4.10
2022-07-29T07:31:29.863Z,3.60
2022-07-29T07:33:57.369Z,4.00
2022-07-29T07:36:25.414Z,3.80
2022-07-29T07:38:54.220Z,3.10
2022-07-29T07:41:21.952Z,3.33
2022-07-29T07:43:49.769Z,3.50
2022-07-29T07:46:17.756Z,3.30
2022-07-29T07:48:45.486Z,3.15
2022-07-29T07:51:13.064Z,3.03
2022-07-29T07:53:40.584Z,3.30
2022-07-29T07:56:11.501Z,3.17
2022-07-29T07:58:39.933Z,2.90
2022-07-29T08:01:07.703Z,3.35
2022-07-29T08:03:35.353Z,2.92
2022-07-29T08:06:02.824Z,3.17
2022-07-29T08:08:30.506Z,3.15
2022-07-29T08:10:57.947Z,2.83
2022-07-29T08:13:29.716Z,3.00
2022-07-29T08:16:01.516Z,3.28
2022-07-29T08:18:30.417Z,2.13
2022-07-29T08:20:58.374Z,2.58
2022-07-29T08:23:31.502Z,2.30
2022-07-29T08:26:13.410Z,2.83
2022-07-29T08:28:46.450Z,2.75
2022-07-29T08:31:14.693Z,2.50
2022-07-29T08:33:42.537Z,2.50
2022-07-29T08:36:10.823Z,1.98
2022-07-29T08:38:38.322Z,2.38
2022-07-29T08:41:06.044Z,2.50
2022-07-29T08:43:36.021Z,2.07
2022-07-29T08:46:04.930Z,1.40
2022-07-29T08:48:33.221Z,1.42
2022-07-29T08:51:02.482Z,1.60
2022-07-29T08:53:32.523Z,1.95
2022-07-29T08:56:01.159Z,1.23
2022-07-29T08:58:33.105Z,1.88
2022-07-29T09:01:07.759Z,1.98
2022-07-29T09:03:41.956Z,1.80
2022-07-29T09:06:09.699Z,1.25
2022-07-29T09:08:37.153Z,2.00
2022-07-29T09:11:05.614Z,1.67
2022-07-29T09:13:33.333Z,1.65
2022-07-29T09:16:04.488Z,2.20
2022-07-29T09:18:40.571Z,1.83
2022-07-29T09:21:28.295Z,2.07
2022-07-29T09:24:03.327Z,2.15
2022-07-29T09:26:31.608Z,1.92
2022-07-29T09:28:59.967Z,2.20
2022-07-29T09:31:36.317Z,1.90
2022-07-29T09:34:06.438Z,2.20
2022-07-29T09:36:40.769Z,2.10
2022-07-29T09:39:08.326Z,2.30
2022-07-29T09:41:50.579Z,2.10
2022-07-29T09:44:18.194Z,1.90
2022-07-29T09:47:00.315Z,2.37
2022-07-29T09:49:29.317Z,1.73
2022-07-29T09:52:06.585Z,2.42
2022-07-29T09:54:37.691Z,2.13
2022-07-29T09:57:07.370Z,2.15
2022-07-29T09:59:35.299Z,1.77
2022-07-29T10:02:02.802Z,1.98
2022-07-29T10:04:41.972Z,2.35
2022-07-29T10:07:09.833Z,2.10
2022-07-29T10:09:37.693Z,1.80
2022-07-29T10:12:07.417Z,1.67
2022-07-29T10:14:35.506Z,1.83
2022-07-29T10:17:03.898Z,1.95
2022-07-29T10:19:32.551Z,2.60
2022-07-29T10:22:03.345Z,2.25
2022-07-29T10:24:32.977Z,2.00
2022-07-29T10:27:01.897Z,1.90
2022-07-29T10:29:32.168Z,2.35
2022-07-29T10:32:19.072Z,2.22
2022-07-29T10:35:02.018Z,1.92
2022-07-29T10:37:39.468Z,2.17
2022-07-29T10:40:45.220Z,2.08
2022-07-29T10:43:20.186Z,2.60
2022-07-29T10:48:39.281Z,2.50
2022-07-29T10:51:09.305Z,2.13
2022-07-29T10:53:52.529Z,2.47
2022-07-29T10:56:28.970Z,2.35
2022-07-29T10:59:36.222Z,1.88
2022-07-29T11:02:35.368Z,1.77
2022-07-29T11:05:02.078Z,2.10
2022-07-29T11:07:41.611Z,2.25
2022-07-29T11:10:31.016Z,1.73
2022-07-29T11:12:59.399Z,1.98
2022-07-29T11:15:28.540Z,1.80
2022-07-29T11:18:15.194Z,1.93
2022-07-29T11:20:46.808Z,2.38
2022-07-29T11:23:27.438Z,2.20
2022-07-29T11:26:21.022Z,2.17
2022-07-29T11:28:53.990Z,1.95
2022-07-29T11:31:35.608Z,2.30
2022-07-29T11:34:28.247Z,2.67
2022-07-29T11:37:28.081Z,2.03
2022-07-29T11:40:14.795Z,2.80
2022-07-29T11:42:51.906Z,2.65
2022-07-29T11:45:44.412Z,2.63
2022-07-29T11:51:12.307Z,2.50
2022-07-29T11:53:40.843Z,2.40
2022-07-29T11:56:11.054Z,2.67
2022-07-29T11:58:46.628Z,2.63
2022-07-29T12:01:16.047Z,2.40
2022-07-29T12:03:43.680Z,2.90
2022-07-29T12:06:18.287Z,2.17
2022-07-29T12:07:02.107Z,2.50
2022-07-29T12:08:48.609Z,2.15
2022-07-29T12:11:21.164Z,1.80
2022-07-29T12:13:51.706Z,2.53
2022-07-29T12:16:25.798Z,3.05
2022-07-29T12:18:58.256Z,3.20
2022-07-29T12:21:26.722Z,2.90
2022-07-29T12:24:01.749Z,2.47
2022-07-29T12:26:32.461Z,2.63
2022-07-29T12:29:03.826Z,3.25
2022-07-29T12:31:44.078Z,2.83
2022-07-29T12:34:13.231Z,2.50
2022-07-29T12:36:41.282Z,2.30
2022-07-29T12:39:09.941Z,2.67
2022-07-29T12:41:37.863Z,2.65
2022-07-29T12:44:06.740Z,2.92
2022-07-29T12:46:34.390Z,3.33
2022-07-29T12:49:04.051Z,2.40
2022-07-29T12:51:33.182Z,2.70
2022-07-29T12:54:06.272Z,3.10
2022-07-29T12:56:42.673Z,2.78
2022-07-29T12:59:16.943Z,3.35
2022-07-29T13:01:44.735Z,3.03
2022-07-29T13:04:12.277Z,2.47
2022-07-29T13:06:42.647Z,3.05
2022-07-29T13:09:15.477Z,3.10
2022-07-29T13:11:48.397Z,3.17
2022-07-29T13:14:33.075Z,3.37
2022-07-29T13:17:06.634Z,2.95
2022-07-29T13:19:41.145Z,2.70
2022-07-29T13:22:09.131Z,2.97
2022-07-29T13:24:47.442Z,3.33
2022-07-29T13:27:15.710Z,2.60
2022-07-29T13:29:44.672Z,2.65
2022-07-29T13:32:13.705Z,2.63
2022-07-29T13:34:41.724Z,2.55
2022-07-29T13:37:09.259Z,3.17
2022-07-29T13:39:38.111Z,2.70
2022-07-29T13:42:10.656Z,3.25
2022-07-29T13:44:38.968Z,3.35
2022-07-29T13:47:07.975Z,3.50
2022-07-29T13:49:35.482Z,3.80
2022-07-29T13:52:02.986Z,3.90
2022-07-29T13:54:30.542Z,4.75
2022-07-29T13:56:58.570Z,3.65
2022-07-29T13:59:26.002Z,3.67
2022-07-29T14:01:53.445Z,3.92
2022-07-29T14:04:22.471Z,3.87
2022-07-29T14:06:49.981Z,3.42
2022-07-29T14:09:17.828Z,4.28
2022-07-29T14:11:46.631Z,3.40
2022-07-29T14:14:14.096Z,3.83
2022-07-29T14:16:44.549Z,4.70
2022-07-29T14:19:18.053Z,3.55
2022-07-29T14:21:46.848Z,3.83
2022-07-29T14:24:21.457Z,3.72
2022-07-29T14:26:49.355Z,3.65
2022-07-29T14:29:16.868Z,3.37
2022-07-29T14:31:44.711Z,3.40
2022-07-29T14:34:12.251Z,4.00
2022-07-29T14:36:39.740Z,3.65
2022-07-29T14:39:08.838Z,3.35
2022-07-29T14:41:36.305Z,4.20
2022-07-29T14:44:04.206Z,3.88
2022-07-29T14:46:31.767Z,3.53
2022-07-29T14:48:59.353Z,3.70
2022-07-29T14:51:32.378Z,3.53
2022-07-29T14:54:00.122Z,3.53
2022-07-29T14:56:46.778Z,3.70
2022-07-29T14:59:14.660Z,3.20
2022-07-29T15:01:42.142Z,3.13
2022-07-29T15:04:09.594Z,3.28
2022-07-29T15:06:37.242Z,2.50
2022-07-29T15:09:04.893Z,3.30
2022-07-29T15:11:38.592Z,3.13
2022-07-29T15:14:06.507Z,3.55
2022-07-29T15:16:34.309Z,3.15
2022-07-29T15:19:02.676Z,2.77
2022-07-29T15:21:30.136Z,2.88
2022-07-29T15:23:57.589Z,3.35
2022-07-29T15:26:25.372Z,3.70
2022-07-29T15:28:54.198Z,3.35
2022-07-29T15:31:21.808Z,3.37
2022-07-29T15:33:49.489Z,3.40
2022-07-29T15:36:42.207Z,3.15
2022-07-29T15:39:04.547Z,3.75
2022-07-29T15:41:32.010Z,3.40
2022-07-29T15:44:00.846Z,3.33
2022-07-29T15:46:45.840Z,3.75
2022-07-29T15:49:13.299Z,3.78
2022-07-29T15:51:40.769Z,4.35
2022-07-29T15:54:08.896Z,3.60
2022-07-29T15:56:36.440Z,3.47
2022-07-29T15:59:05.239Z,2.55
2022-07-29T16:01:32.685Z,2.85
2022-07-29T16:04:00.186Z,3.20
2022-07-29T16:06:27.871Z,3.13
2022-07-29T16:08:55.734Z,2.80
2022-07-29T16:11:23.268Z,3.45
2022-07-29T16:13:50.771Z,2.55
2022-07-29T16:16:20.189Z,3.20
2022-07-29T16:18:48.161Z,3.45
2022-07-29T16:21:15.668Z,4.87
2022-07-29T16:23:43.465Z,2.63
2022-07-29T16:26:10.927Z,2.50
2022-07-29T16:28:38.388Z,2.70
2022-07-29T16:31:05.859Z,2.58
2022-07-29T16:33:54.637Z,2.10
2022-07-29T16:36:22.985Z,2.15
2022-07-29T16:38:51.046Z,2.38
2022-07-29T16:41:18.634Z,2.10
2022-07-29T16:43:46.202Z,2.13
2022-07-29T16:46:15.658Z,2.00
2022-07-29T16:48:48.952Z,2.05
2022-07-29T16:51:16.554Z,2.10
2022-07-29T16:53:45.784Z,2.17
2022-07-29T16:56:17.228Z,2.03
2022-07-29T16:58:44.792Z,2.10
2022-07-29T17:01:12.610Z,1.85
2022-07-29T17:04:00.889Z,2.00
2022-07-29T17:06:29.874Z,2.03
2022-07-29T17:08:57.480Z,2.00
2022-07-29T17:11:53.221Z,2.30
2022-07-29T17:14:12.998Z,2.10
2022-07-29T17:16:40.503Z,2.00
2022-07-29T17:19:08.003Z,2.03
2022-07-29T17:21:36.820Z,2.15
2022-07-29T17:24:16.492Z,2.23
2022-07-29T17:26:44.460Z,2.67
2022-07-29T17:29:12.574Z,2.92
2022-07-29T17:31:40.135Z,2.70
2022-07-29T17:34:08.650Z,2.53
2022-07-29T17:36:37.504Z,2.17
2022-07-29T17:39:07.187Z,2.65
2022-07-29T17:41:35.304Z,2.78
2022-07-29T17:44:02.734Z,2.75
2022-07-29T17:46:30.609Z,2.17
2022-07-29T17:48:58.688Z,2.30
2022-07-29T17:51:27.345Z,2.50
2022-07-29T17:53:56.219Z,3.00
2022-07-29T17:56:23.678Z,3.05
2022-07-29T17:58:51.168Z,3.10
2022-07-29T18:01:19.000Z,2.90
2022-07-29T18:03:46.867Z,3.13
2022-07-29T18:06:14.368Z,2.95
2022-07-29T18:08:41.879Z,3.13
2022-07-29T18:11:14.930Z,3.45
2022-07-29T18:13:43.178Z,3.53
2022-07-29T18:16:11.632Z,3.42
2022-07-29T18:18:39.538Z,3.53
2022-07-29T18:21:07.233Z,3.90
2022-07-29T18:23:34.915Z,3.55
2022-07-29T18:26:02.374Z,3.40
2022-07-29T18:28:32.580Z,3.67
2022-07-29T18:31:00.432Z,3.33
2022-07-29T18:33:28.730Z,4.80
2022-07-29T18:36:10.846Z,3.28
2022-07-29T18:38:39.347Z,3.70
2022-07-29T18:41:06.796Z,3.72
2022-07-29T18:43:35.649Z,3.63
2022-07-29T18:46:05.229Z,3.38
2022-07-29T18:48:33.066Z,3.92
2022-07-29T18:51:00.670Z,3.40
2022-07-29T18:53:28.147Z,3.70
2022-07-29T18:56:00.183Z,3.60
2022-07-29T18:58:27.988Z,3.00
2022-07-29T19:00:56.833Z,3.58
2022-07-29T19:03:24.280Z,3.53
2022-07-29T19:05:52.458Z,3.45
2022-07-29T19:08:19.928Z,3.42
2022-07-29T19:10:47.467Z,3.20
2022-07-29T19:13:15.029Z,3.55
2022-07-29T19:15:42.565Z,3.30
2022-07-29T19:18:13.150Z,3.25
2022-07-29T19:20:41.950Z,3.35
2022-07-29T19:23:09.681Z,3.72
2022-07-29T19:25:37.361Z,3.70
2022-07-29T19:28:20.882Z,3.70
2022-07-29T19:30:48.420Z,3.60
2022-07-29T19:33:18.766Z,3.30
2022-07-29T19:35:48.386Z,3.17
2022-07-29T19:38:18.645Z,3.67
2022-07-29T19:40:46.195Z,3.40
2022-07-29T19:43:50.526Z,3.28
2022-07-29T19:46:01.426Z,3.33
2022-07-29T19:48:30.363Z,3.60
2022-07-29T19:50:57.901Z,3.10
2022-07-29T19:53:25.369Z,3.40
2022-07-29T19:55:53.125Z,3.50
2022-07-29T19:58:22.448Z,4.00
2022-07-29T20:00:50.379Z,3.70
2022-07-29T20:03:17.903Z,3.72
2022-07-29T20:05:48.005Z,3.57
2022-07-29T20:08:15.881Z,3.72
2022-07-29T20:10:43.318Z,3.92
2022-07-29T20:13:10.868Z,3.60
2022-07-29T20:15:38.492Z,4.00
2022-07-29T20:18:06.232Z,3.83
2022-07-29T20:20:34.244Z,3.47
2022-07-29T20:23:03.615Z,4.25
2022-07-29T20:25:31.262Z,3.80
2022-07-29T20:27:58.938Z,3.40
2022-07-29T20:30:26.688Z,3.90
2022-07-29T20:32:55.134Z,4.13
2022-07-29T20:35:23.139Z,3.92
2022-07-29T20:37:55.619Z,4.20
2022-07-29T20:40:26.170Z,3.83
2022-07-29T20:42:53.725Z,3.73
2022-07-29T20:45:21.744Z,4.25
2022-07-29T20:47:50.564Z,4.22
2022-07-29T20:50:18.305Z,4.38
2022-07-29T20:52:45.755Z,4.07
2022-07-29T20:55:13.262Z,4.70
2022-07-29T20:57:42.917Z,4.13
2022-07-29T21:00:11.767Z,4.20
2022-07-29T21:02:39.321Z,4.00
2022-07-29T21:05:07.438Z,4.10
2022-07-29T21:07:34.900Z,3.83
2022-07-29T21:10:02.454Z,3.88
2022-07-29T21:12:30.390Z,3.80
2022-07-29T21:14:59.189Z,3.53
2022-07-29T21:17:26.640Z,4.28
2022-07-29T21:19:55.200Z,3.57
2022-07-29T21:22:22.656Z,4.30
2022-07-29T21:24:50.172Z,3.90
2022-07-29T21:27:38.335Z,3.95
2022-07-29T21:30:09.291Z,4.00
2022-07-29T21:32:36.885Z,4.10
2022-07-29T21:35:14.545Z,3.88
2022-07-29T21:37:52.549Z,4.00
2022-07-29T21:40:20.068Z,4.47
2022-07-29T21:42:47.537Z,4.40
2022-07-29T21:45:18.648Z,4.43
2022-07-29T21:47:46.127Z,4.40
2022-07-29T21:50:13.591Z,4.70
2022-07-29T21:52:41.042Z,4.82
2022-07-29T21:55:10.667Z,4.43
2022-07-29T21:57:39.196Z,4.33
2022-07-29T22:00:10.270Z,4.43
2022-07-29T22:02:39.035Z,4.60
2022-07-29T22:05:06.845Z,4.40
2022-07-29T22:07:56.298Z,4.72
2022-07-29T22:10:21.893Z,4.00
2022-07-29T22:12:51.797Z,4.30
2022-07-29T22:15:19.317Z,4.20
2022-07-29T22:17:48.157Z,3.72
2022-07-29T22:20:15.869Z,4.07
2022-07-29T22:22:43.360Z,3.57
2022-07-29T22:25:11.949Z,4.05
2022-07-29T22:27:39.841Z,4.85
2022-07-29T22:30:08.564Z,4.18
2022-07-29T22:32:36.239Z,4.53
2022-07-29T22:35:05.481Z,4.10
2022-07-29T22:37:32.964Z,4.45
2022-07-29T22:40:00.444Z,4.00
2022-07-29T22:42:28.013Z,4.20
2022-07-29T22:44:55.535Z,4.53
2022-07-29T22:47:45.833Z,4.20
2022-07-29T22:50:11.918Z,3.95
2022-07-29T22:52:39.370Z,4.03
2022-07-29T22:55:07.711Z,4.35
2022-07-29T22:57:35.153Z,4.10
2022-07-29T23:00:02.720Z,3.80
2022-07-29T23:02:30.238Z,4.13
2022-07-29T23:04:58.061Z,4.18
2022-07-29T23:07:27.025Z,4.43
2022-07-29T23:09:54.454Z,4.07
2022-07-29T23:12:22.098Z,3.70
2022-07-29T23:14:49.513Z,4.60
2022-07-29T23:17:17.006Z,4.25
2022-07-29T23:19:44.482Z,4.45
2022-07-29T23:22:12.160Z,4.47
2022-07-29T23:24:41.126Z,5.10
2022-07-29T23:27:08.618Z,4.95
2022-07-29T23:29:36.902Z,4.88
2022-07-29T23:32:04.843Z,5.38
2022-07-29T23:34:32.306Z,4.97
2022-07-29T23:36:59.939Z,4.53
2022-07-29T23:39:27.554Z,4.75
2022-07-29T23:41:56.973Z,5.63
2022-07-29T23:44:24.476Z,4.72
2022-07-29T23:46:51.943Z,4.60
2022-07-29T23:49:19.446Z,3.90
2022-07-29T23:51:46.913Z,4.03
2022-07-29T23:54:14.435Z,4.50
2022-07-29T23:56:41.907Z,4.88
2022-07-29T23:59:10.676Z,5.10
